sensor_id;sensor_type;location;lat;lon;timestamp;P1;durP1;ratioP1;P2;durP2;ratioP2
16673;SDS011;8450;52.654;10.326;2023-03-23T06:01:25;3.37;;;2.90;;
16673;SDS011;8450;52.654;10.326;2023-03-23T06:03:52;3.23;;;2.47;;
16673;SDS011;8450;52.654;10.326;2023-03-23T06:06:22;2.63;;;2.43;;
16673;SDS011;8450;52.654;10.326;2023-03-23T06:08:53;2.63;;;2.40;;
16673;SDS011;8450;52.654;10.326;2023-03-23T06:11:30;4.10;;;2.60;;
16673;SDS011;8450;52.654;10.326;2023-03-23T06:14:13;2.87;;;2.67;;
16673;SDS011;8450;52.654;10.326;2023-03-23T06:16:39;2.87;;;2.30;;
16673;SDS011;8450;52.654;10.326;2023-03-23T06:19:08;2.97;;;2.57;;
16673;SDS011;8450;52.654;10.326;2023-03-23T06:21:36;2.40;;;2.20;;
16673;SDS011;8450;52.654;10.326;2023-03-23T06:24:24;2.73;;;2.37;;
16673;SDS011;8450;52.654;10.326;2023-03-23T06:26:51;3.13;;;2.63;;
16673;SDS011;8450;52.654;10.326;2023-03-23T06:29:20;2.40;;;2.20;;
16673;SDS011;8450;52.654;10.326;2023-03-23T06:31:52;4.23;;;2.70;;
16673;SDS011;8450;52.654;10.326;2023-03-23T06:34:24;2.60;;;2.40;;
16673;SDS011;8450;52.654;10.326;2023-03-23T06:37:13;2.77;;;2.53;;
16673;SDS011;8450;52.654;10.326;2023-03-23T06:40:05;2.53;;;2.30;;
16673;SDS011;8450;52.654;10.326;2023-03-23T06:42:37;2.77;;;2.37;;
16673;SDS011;8450;52.654;10.326;2023-03-23T06:45:22;2.30;;;2.10;;
16673;SDS011;8450;52.654;10.326;2023-03-23T06:47:52;3.23;;;2.40;;
16673;SDS011;8450;52.654;10.326;2023-03-23T06:50:18;3.03;;;2.20;;
16673;SDS011;8450;52.654;10.326;2023-03-23T06:52:48;2.23;;;2.00;;
16673;SDS011;8450;52.654;10.326;2023-03-23T06:55:16;2.50;;;2.30;;
16673;SDS011;8450;52.654;10.326;2023-03-23T06:57:43;3.67;;;2.63;;
16673;SDS011;8450;52.654;10.326;2023-03-23T07:00:11;3.10;;;2.20;;
16673;SDS011;8450;52.654;10.326;2023-03-23T07:02:40;3.70;;;2.27;;
16673;SDS011;8450;52.654;10.326;2023-03-23T07:05:07;6.70;;;2.20;;
16673;SDS011;8450;52.654;10.326;2023-03-23T07:07:38;2.27;;;2.07;;
16673;SDS011;8450;52.654;10.326;2023-03-23T07:10:22;3.60;;;2.17;;
16673;SDS011;8450;52.654;10.326;2023-03-23T07:12:48;3.40;;;2.30;;
16673;SDS011;8450;52.654;10.326;2023-03-23T07:15:14;2.00;;;1.80;;
16673;SDS011;8450;52.654;10.326;2023-03-23T07:17:44;2.70;;;2.30;;
16673;SDS011;8450;52.654;10.326;2023-03-23T07:20:16;2.93;;;2.17;;
16673;SDS011;8450;52.654;10.326;2023-03-23T07:22:42;2.73;;;2.10;;
16673;SDS011;8450;52.654;10.326;2023-03-23T07:25:19;2.20;;;1.90;;
16673;SDS011;8450;52.654;10.326;2023-03-23T07:27:49;2.30;;;1.90;;
16673;SDS011;8450;52.654;10.326;2023-03-23T07:30:15;1.90;;;1.77;;
16673;SDS011;8450;52.654;10.326;2023-03-23T07:32:41;3.90;;;2.03;;
16673;SDS011;8450;52.654;10.326;2023-03-23T07:35:07;2.10;;;1.90;;
16673;SDS011;8450;52.654;10.326;2023-03-23T07:38:00;2.13;;;1.93;;
16673;SDS011;8450;52.654;10.326;2023-03-23T07:40:27;3.43;;;2.00;;
16673;SDS011;8450;52.654;10.326;2023-03-23T07:42:58;2.37;;;2.03;;
16673;SDS011;8450;52.654;10.326;2023-03-23T07:45:32;1.80;;;1.70;;
16673;SDS011;8450;52.654;10.326;2023-03-23T07:47:58;2.53;;;1.60;;
16673;SDS011;8450;52.654;10.326;2023-03-23T07:50:24;2.40;;;2.00;;
16673;SDS011;8450;52.654;10.326;2023-03-23T07:52:56;2.63;;;1.93;;
16673;SDS011;8450;52.654;10.326;2023-03-23T07:55:23;2.47;;;2.10;;
16673;SDS011;8450;52.654;10.326;2023-03-23T07:58:01;1.90;;;1.70;;
16673;SDS011;8450;52.654;10.326;2023-03-23T08:00:27;2.37;;;1.90;;
16673;SDS011;8450;52.654;10.326;2023-03-23T08:02:55;2.00;;;1.80;;
16673;SDS011;8450;52.654;10.326;2023-03-23T08:05:34;2.80;;;1.90;;
16673;SDS011;8450;52.654;10.326;2023-03-23T08:08:18;2.03;;;1.70;;
16673;SDS011;8450;52.654;10.326;2023-03-23T08:11:19;1.90;;;1.80;;
16673;SDS011;8450;52.654;10.326;2023-03-23T08:14:04;2.53;;;1.87;;
16673;SDS011;8450;52.654;10.326;2023-03-23T08:16:53;3.40;;;2.20;;
16673;SDS011;8450;52.654;10.326;2023-03-23T08:19:39;1.93;;;1.77;;
16673;SDS011;8450;52.654;10.326;2023-03-23T08:22:20;4.80;;;1.83;;
16673;SDS011;8450;52.654;10.326;2023-03-23T08:25:07;2.20;;;2.00;;
16673;SDS011;8450;52.654;10.326;2023-03-23T08:27:55;2.30;;;2.10;;
16673;SDS011;8450;52.654;10.326;2023-03-23T08:30:40;1.80;;;1.70;;
16673;SDS011;8450;52.654;10.326;2023-03-23T08:33:16;3.10;;;1.70;;
16673;SDS011;8450;52.654;10.326;2023-03-23T08:36:20;2.83;;;1.87;;
16673;SDS011;8450;52.654;10.326;2023-03-23T08:39:09;2.00;;;1.80;;
16673;SDS011;8450;52.654;10.326;2023-03-23T08:41:49;2.13;;;1.90;;
16673;SDS011;8450;52.654;10.326;2023-03-23T08:44:21;2.63;;;1.90;;
16673;SDS011;8450;52.654;10.326;2023-03-23T08:47:15;1.97;;;1.80;;
16673;SDS011;8450;52.654;10.326;2023-03-23T08:50:11;2.60;;;2.40;;
16673;SDS011;8450;52.654;10.326;2023-03-23T08:53:18;2.60;;;2.07;;
16673;SDS011;8450;52.654;10.326;2023-03-23T08:55:45;2.10;;;1.90;;
16673;SDS011;8450;52.654;10.326;2023-03-23T08:58:30;4.40;;;2.43;;
16673;SDS011;8450;52.654;10.326;2023-03-23T09:01:16;2.33;;;2.00;;
16673;SDS011;8450;52.654;10.326;2023-03-23T09:03:42;3.00;;;1.97;;
16673;SDS011;8450;52.654;10.326;2023-03-23T09:06:26;4.03;;;2.30;;
16673;SDS011;8450;52.654;10.326;2023-03-23T09:08:52;2.70;;;2.10;;
16673;SDS011;8450;52.654;10.326;2023-03-23T09:11:20;2.37;;;2.17;;
16673;SDS011;8450;52.654;10.326;2023-03-23T09:13:46;2.40;;;2.13;;
16673;SDS011;8450;52.654;10.326;2023-03-23T09:16:11;2.67;;;2.00;;
16673;SDS011;8450;52.654;10.326;2023-03-23T09:18:37;2.80;;;2.20;;
16673;SDS011;8450;52.654;10.326;2023-03-23T09:21:03;2.57;;;1.97;;
16673;SDS011;8450;52.654;10.326;2023-03-23T09:23:29;2.93;;;2.10;;
16673;SDS011;8450;52.654;10.326;2023-03-23T09:25:55;3.23;;;2.20;;
16673;SDS011;8450;52.654;10.326;2023-03-23T09:28:20;2.30;;;2.03;;
16673;SDS011;8450;52.654;10.326;2023-03-23T09:30:46;3.13;;;1.93;;
16673;SDS011;8450;52.654;10.326;2023-03-23T09:33:12;2.50;;;2.30;;
16673;SDS011;8450;52.654;10.326;2023-03-23T09:35:39;2.40;;;2.00;;
16673;SDS011;8450;52.654;10.326;2023-03-23T09:38:07;2.20;;;2.00;;
16673;SDS011;8450;52.654;10.326;2023-03-23T09:48:35;2.93;;;2.50;;
16673;SDS011;8450;52.654;10.326;2023-03-23T09:51:07;2.93;;;2.20;;
16673;SDS011;8450;52.654;10.326;2023-03-23T09:53:47;2.97;;;1.87;;
16673;SDS011;8450;52.654;10.326;2023-03-23T09:56:16;3.80;;;2.30;;
16673;SDS011;8450;52.654;10.326;2023-03-23T10:01:22;4.13;;;2.40;;
16673;SDS011;8450;52.654;10.326;2023-03-23T10:04:05;3.13;;;2.07;;
16673;SDS011;8450;52.654;10.326;2023-03-23T10:06:37;2.23;;;2.03;;
16673;SDS011;8450;52.654;10.326;2023-03-23T10:09:04;3.53;;;2.20;;
16673;SDS011;8450;52.654;10.326;2023-03-23T10:11:33;4.00;;;2.23;;
16673;SDS011;8450;52.654;10.326;2023-03-23T10:14:11;4.23;;;2.50;;
16673;SDS011;8450;52.654;10.326;2023-03-23T10:16:53;2.80;;;2.20;;
16673;SDS011;8450;52.654;10.326;2023-03-23T10:19:25;5.03;;;2.27;;
16673;SDS011;8450;52.654;10.326;2023-03-23T10:22:08;5.00;;;2.63;;
16673;SDS011;8450;52.654;10.326;2023-03-23T10:24:36;5.27;;;2.47;;
16673;SDS011;8450;52.654;10.326;2023-03-23T10:27:18;3.53;;;2.53;;
16673;SDS011;8450;52.654;10.326;2023-03-23T10:29:58;2.50;;;2.30;;
16673;SDS011;8450;52.654;10.326;2023-03-23T10:32:41;4.57;;;2.30;;
16673;SDS011;8450;52.654;10.326;2023-03-23T10:35:30;5.30;;;2.73;;
16673;SDS011;8450;52.654;10.326;2023-03-23T10:38:00;3.60;;;2.10;;
16673;SDS011;8450;52.654;10.326;2023-03-23T10:40:30;5.10;;;2.53;;
16673;SDS011;8450;52.654;10.326;2023-03-23T10:43:00;3.73;;;2.63;;
16673;SDS011;8450;52.654;10.326;2023-03-23T10:45:27;2.50;;;2.23;;
16673;SDS011;8450;52.654;10.326;2023-03-23T10:50:57;5.20;;;2.37;;
16673;SDS011;8450;52.654;10.326;2023-03-23T10:53:28;3.77;;;2.50;;
16673;SDS011;8450;52.654;10.326;2023-03-23T10:55:58;2.73;;;2.03;;
16673;SDS011;8450;52.654;10.326;2023-03-23T10:58:30;4.47;;;2.90;;
16673;SDS011;8450;52.654;10.326;2023-03-23T11:00:59;4.53;;;2.10;;
16673;SDS011;8450;52.654;10.326;2023-03-23T11:03:29;2.47;;;2.20;;
16673;SDS011;8450;52.654;10.326;2023-03-23T11:06:08;5.60;;;2.30;;
16673;SDS011;8450;52.654;10.326;2023-03-23T11:08:37;2.20;;;2.00;;
16673;SDS011;8450;52.654;10.326;2023-03-23T11:11:17;6.13;;;2.93;;
16673;SDS011;8450;52.654;10.326;2023-03-23T11:13:48;2.77;;;2.23;;
16673;SDS011;8450;52.654;10.326;2023-03-23T11:16:26;4.03;;;2.27;;
16673;SDS011;8450;52.654;10.326;2023-03-23T11:18:53;2.70;;;2.23;;
16673;SDS011;8450;52.654;10.326;2023-03-23T11:21:20;4.20;;;2.33;;
16673;SDS011;8450;52.654;10.326;2023-03-23T11:23:52;14.53;;;7.20;;
16673;SDS011;8450;52.654;10.326;2023-03-23T11:26:29;8.33;;;5.47;;
16673;SDS011;8450;52.654;10.326;2023-03-23T11:29:12;10.73;;;6.33;;
16673;SDS011;8450;52.654;10.326;2023-03-23T11:31:42;14.70;;;8.23;;
16673;SDS011;8450;52.654;10.326;2023-03-23T11:34:16;11.83;;;7.33;;
16673;SDS011;8450;52.654;10.326;2023-03-23T11:36:50;13.17;;;8.07;;
16673;SDS011;8450;52.654;10.326;2023-03-23T11:41:53;13.73;;;8.67;;
16673;SDS011;8450;52.654;10.326;2023-03-23T11:44:21;10.40;;;7.03;;
16673;SDS011;8450;52.654;10.326;2023-03-23T11:49:37;16.43;;;9.50;;
16673;SDS011;8450;52.654;10.326;2023-03-23T11:52:11;13.17;;;8.43;;
16673;SDS011;8450;52.654;10.326;2023-03-23T11:54:57;17.87;;;10.00;;
16673;SDS011;8450;52.654;10.326;2023-03-23T11:57:30;14.23;;;8.57;;
16673;SDS011;8450;52.654;10.326;2023-03-23T11:59:55;15.00;;;8.63;;
16673;SDS011;8450;52.654;10.326;2023-03-23T12:02:43;19.93;;;11.73;;
16673;SDS011;8450;52.654;10.326;2023-03-23T12:05:41;16.77;;;10.33;;
16673;SDS011;8450;52.654;10.326;2023-03-23T12:11:03;9.67;;;7.43;;
16673;SDS011;8450;52.654;10.326;2023-03-23T12:16:20;7.20;;;5.70;;
16673;SDS011;8450;52.654;10.326;2023-03-23T12:19:23;9.00;;;4.80;;
16673;SDS011;8450;52.654;10.326;2023-03-23T12:27:18;5.87;;;3.43;;
16673;SDS011;8450;52.654;10.326;2023-03-23T12:30:04;4.73;;;2.60;;
16673;SDS011;8450;52.654;10.326;2023-03-23T12:32:49;3.60;;;2.80;;
16673;SDS011;8450;52.654;10.326;2023-03-23T12:35:32;4.13;;;2.40;;
16673;SDS011;8450;52.654;10.326;2023-03-23T12:38:25;4.40;;;2.37;;
16673;SDS011;8450;52.654;10.326;2023-03-23T12:41:05;4.37;;;2.67;;
16673;SDS011;8450;52.654;10.326;2023-03-23T12:44:02;3.27;;;2.20;;
16673;SDS011;8450;52.654;10.326;2023-03-23T12:46:35;2.10;;;1.90;;
16673;SDS011;8450;52.654;10.326;2023-03-23T12:49:21;3.03;;;2.40;;
16673;SDS011;8450;52.654;10.326;2023-03-23T12:51:55;2.80;;;1.77;;
16673;SDS011;8450;52.654;10.326;2023-03-23T12:57:43;3.07;;;2.27;;
16673;SDS011;8450;52.654;10.326;2023-03-23T13:03:24;3.93;;;2.13;;
16673;SDS011;8450;52.654;10.326;2023-03-23T13:06:06;2.33;;;2.10;;
16673;SDS011;8450;52.654;10.326;2023-03-23T13:08:42;2.57;;;2.00;;
16673;SDS011;8450;52.654;10.326;2023-03-23T13:11:20;2.57;;;1.97;;
16673;SDS011;8450;52.654;10.326;2023-03-23T13:13:54;5.07;;;2.20;;
16673;SDS011;8450;52.654;10.326;2023-03-23T13:21:59;2.80;;;1.90;;
16673;SDS011;8450;52.654;10.326;2023-03-23T13:24:39;3.70;;;2.13;;
16673;SDS011;8450;52.654;10.326;2023-03-23T13:27:11;1.77;;;1.67;;
16673;SDS011;8450;52.654;10.326;2023-03-23T13:29:43;2.70;;;1.77;;
16673;SDS011;8450;52.654;10.326;2023-03-23T13:32:15;1.93;;;1.77;;
16673;SDS011;8450;52.654;10.326;2023-03-23T13:34:42;2.10;;;1.80;;
16673;SDS011;8450;52.654;10.326;2023-03-23T13:37:12;2.70;;;1.70;;
16673;SDS011;8450;52.654;10.326;2023-03-23T13:39:55;2.57;;;1.80;;
16673;SDS011;8450;52.654;10.326;2023-03-23T13:42:27;1.70;;;1.60;;
16673;SDS011;8450;52.654;10.326;2023-03-23T13:47:46;2.07;;;1.60;;
16673;SDS011;8450;52.654;10.326;2023-03-23T13:50:24;2.10;;;1.70;;
16673;SDS011;8450;52.654;10.326;2023-03-23T13:53:12;3.60;;;1.90;;
16673;SDS011;8450;52.654;10.326;2023-03-23T13:55:40;3.20;;;1.70;;
16673;SDS011;8450;52.654;10.326;2023-03-23T14:01:17;1.90;;;1.80;;
16673;SDS011;8450;52.654;10.326;2023-03-23T14:03:39;2.03;;;1.40;;
16673;SDS011;8450;52.654;10.326;2023-03-23T14:06:16;2.70;;;1.50;;
16673;SDS011;8450;52.654;10.326;2023-03-23T14:09:04;2.60;;;1.60;;
16673;SDS011;8450;52.654;10.326;2023-03-23T14:11:44;1.50;;;1.40;;
16673;SDS011;8450;52.654;10.326;2023-03-23T14:14:27;2.00;;;1.50;;
16673;SDS011;8450;52.654;10.326;2023-03-23T14:19:38;2.07;;;1.40;;
16673;SDS011;8450;52.654;10.326;2023-03-23T14:22:05;2.03;;;1.53;;
16673;SDS011;8450;52.654;10.326;2023-03-23T14:24:43;1.93;;;1.73;;
16673;SDS011;8450;52.654;10.326;2023-03-23T14:27:09;1.80;;;1.27;;
16673;SDS011;8450;52.654;10.326;2023-03-23T14:29:37;1.77;;;1.40;;
16673;SDS011;8450;52.654;10.326;2023-03-23T14:32:05;2.50;;;1.20;;
16673;SDS011;8450;52.654;10.326;2023-03-23T14:34:32;1.83;;;1.50;;
16673;SDS011;8450;52.654;10.326;2023-03-23T14:36:59;1.30;;;1.20;;
16673;SDS011;8450;52.654;10.326;2023-03-23T14:39:26;1.43;;;1.03;;
16673;SDS011;8450;52.654;10.326;2023-03-23T14:41:54;1.93;;;1.27;;
16673;SDS011;8450;52.654;10.326;2023-03-23T14:44:31;1.40;;;1.30;;
16673;SDS011;8450;52.654;10.326;2023-03-23T14:47:01;2.20;;;1.37;;
16673;SDS011;8450;52.654;10.326;2023-03-23T14:49:32;2.00;;;1.30;;
16673;SDS011;8450;52.654;10.326;2023-03-23T14:52:24;1.30;;;1.20;;
16673;SDS011;8450;52.654;10.326;2023-03-23T14:54:50;1.70;;;1.40;;
16673;SDS011;8450;52.654;10.326;2023-03-23T14:59:50;1.60;;;1.13;;
16673;SDS011;8450;52.654;10.326;2023-03-23T15:02:27;1.57;;;1.20;;
16673;SDS011;8450;52.654;10.326;2023-03-23T15:05:17;1.73;;;1.20;;
16673;SDS011;8450;52.654;10.326;2023-03-23T15:07:47;1.80;;;1.13;;
16673;SDS011;8450;52.654;10.326;2023-03-23T15:10:18;1.20;;;1.00;;
16673;SDS011;8450;52.654;10.326;2023-03-23T15:12:45;2.60;;;1.27;;
16673;SDS011;8450;52.654;10.326;2023-03-23T15:15:19;1.23;;;0.90;;
16673;SDS011;8450;52.654;10.326;2023-03-23T15:17:49;1.20;;;1.00;;
16673;SDS011;8450;52.654;10.326;2023-03-23T15:20:22;1.30;;;1.20;;
16673;SDS011;8450;52.654;10.326;2023-03-23T15:22:52;1.60;;;1.50;;
16673;SDS011;8450;52.654;10.326;2023-03-23T15:35:38;1.20;;;1.10;;
16673;SDS011;8450;52.654;10.326;2023-03-23T15:40:52;1.33;;;1.00;;
16673;SDS011;8450;52.654;10.326;2023-03-23T15:43:20;1.73;;;1.10;;
16673;SDS011;8450;52.654;10.326;2023-03-23T15:48:25;2.60;;;1.20;;
16673;SDS011;8450;52.654;10.326;2023-03-23T15:50:52;1.20;;;1.10;;
16673;SDS011;8450;52.654;10.326;2023-03-23T15:53:28;1.60;;;1.40;;
16673;SDS011;8450;52.654;10.326;2023-03-23T15:55:59;2.03;;;1.20;;
16673;SDS011;8450;52.654;10.326;2023-03-23T15:58:26;2.10;;;1.23;;
16673;SDS011;8450;52.654;10.326;2023-03-23T16:00:52;2.60;;;1.37;;
16673;SDS011;8450;52.654;10.326;2023-03-23T16:03:25;2.40;;;1.40;;
16673;SDS011;8450;52.654;10.326;2023-03-23T16:05:55;2.37;;;1.30;;
16673;SDS011;8450;52.654;10.326;2023-03-23T16:08:23;2.07;;;1.57;;
16673;SDS011;8450;52.654;10.326;2023-03-23T16:10:49;2.90;;;1.70;;
16673;SDS011;8450;52.654;10.326;2023-03-23T16:13:15;2.73;;;1.53;;
16673;SDS011;8450;52.654;10.326;2023-03-23T16:15:42;1.67;;;1.57;;
16673;SDS011;8450;52.654;10.326;2023-03-23T16:18:18;2.00;;;1.40;;
16673;SDS011;8450;52.654;10.326;2023-03-23T16:20:47;2.50;;;1.70;;
16673;SDS011;8450;52.654;10.326;2023-03-23T16:23:13;1.60;;;1.40;;
16673;SDS011;8450;52.654;10.326;2023-03-23T16:25:39;1.67;;;1.43;;
16673;SDS011;8450;52.654;10.326;2023-03-23T16:28:07;2.30;;;1.60;;
16673;SDS011;8450;52.654;10.326;2023-03-23T16:30:35;1.33;;;1.20;;
16673;SDS011;8450;52.654;10.326;2023-03-23T16:33:01;1.80;;;1.40;;
16673;SDS011;8450;52.654;10.326;2023-03-23T16:35:27;2.70;;;1.80;;
16673;SDS011;8450;52.654;10.326;2023-03-23T16:37:54;1.50;;;1.40;;
16673;SDS011;8450;52.654;10.326;2023-03-23T16:40:20;1.90;;;1.30;;
16673;SDS011;8450;52.654;10.326;2023-03-23T16:42:46;2.30;;;1.40;;
16673;SDS011;8450;52.654;10.326;2023-03-23T16:45:13;2.87;;;1.70;;
16673;SDS011;8450;52.654;10.326;2023-03-23T16:47:39;1.70;;;1.50;;
16673;SDS011;8450;52.654;10.326;2023-03-23T16:50:06;1.43;;;1.20;;
16673;SDS011;8450;52.654;10.326;2023-03-23T16:52:35;4.07;;;2.00;;
16673;SDS011;8450;52.654;10.326;2023-03-23T16:55:06;1.40;;;1.30;;
